createdAt,value
2022-08-16T00:01:34.267Z,99645.19
2022-08-16T00:04:00.125Z,99645.02
2022-08-16T00:06:30.335Z,99643.28
2022-08-16T00:08:59.443Z,99649.06
2022-08-16T00:11:28.533Z,99656.47
2022-08-16T00:13:57.722Z,99656.47
2022-08-16T00:17:01.479Z,99659.63
2022-08-16T00:19:06.533Z,99659.63
2022-08-16T00:21:36.777Z,99667.00
2022-08-16T00:24:06.708Z,99666.66
2022-08-16T00:26:44.219Z,99658.35
2022-08-16T00:29:08.300Z,99659.30
2022-08-16T00:31:59.801Z,99659.30
2022-08-16T00:34:18.250Z,99668.23
2022-08-16T00:36:47.379Z,99675.13
2022-08-16T00:39:18.015Z,99675.13
2022-08-16T00:41:50.352Z,99662.01
2022-08-16T00:44:22.758Z,99662.01
2022-08-16T00:47:05.945Z,99653.15
2022-08-16T00:49:29.702Z,99634.20
2022-08-16T00:52:00.488Z,99634.20
2022-08-16T00:54:32.958Z,99630.65
2022-08-16T00:57:04.071Z,99613.80
2022-08-16T00:59:35.846Z,99609.66
2022-08-16T01:02:30.471Z,99609.66
2022-08-16T01:04:41.180Z,99613.37
2022-08-16T01:07:12.023Z,99622.52
2022-08-16T01:09:43.193Z,99622.52
2022-08-16T01:12:26.598Z,99643.42
2022-08-16T01:14:47.192Z,99668.55
2022-08-16T01:17:20.311Z,99682.48
2022-08-16T01:19:57.034Z,99682.48
2022-08-16T01:22:48.592Z,99685.38
2022-08-16T01:25:33.656Z,99653.09
2022-08-16T01:27:58.546Z,99653.09
2022-08-16T01:30:31.865Z,99658.97
2022-08-16T01:33:15.068Z,99665.23
2022-08-16T01:35:43.961Z,99658.16
2022-08-16T01:38:37.426Z,99688.73
2022-08-16T01:54:13.310Z,99903.41
2022-08-16T01:56:42.938Z,99875.89
2022-08-16T01:59:15.727Z,99867.94
2022-08-16T02:01:49.813Z,99866.69
2022-08-16T02:04:48.410Z,99894.56
2022-08-16T02:06:52.789Z,99896.88
2022-08-16T02:09:25.693Z,99913.89
2022-08-16T02:11:59.285Z,99875.42
2022-08-16T02:14:31.860Z,99875.42
2022-08-16T02:17:02.972Z,99847.59
2022-08-16T02:19:58.840Z,99814.20
2022-08-16T02:22:46.643Z,99778.58
2022-08-16T02:24:45.835Z,99778.58
2022-08-16T02:27:13.619Z,99763.42
2022-08-16T02:29:44.603Z,99760.20
2022-08-16T02:33:02.511Z,99748.00
2022-08-16T02:34:48.388Z,99784.64
2022-08-16T02:37:20.963Z,99784.64
2022-08-16T02:39:54.114Z,99762.02
2022-08-16T02:42:21.009Z,99756.09
2022-08-16T02:44:50.191Z,99756.09
2022-08-16T02:47:24.959Z,99746.27
2022-08-16T02:50:52.121Z,99770.18
2022-08-16T02:52:24.694Z,99777.94
2022-08-16T02:54:55.705Z,99758.10
2022-08-16T02:57:24.998Z,99767.45
2022-08-16T02:59:54.695Z,99767.45
2022-08-16T03:02:31.868Z,99771.02
2022-08-16T03:04:54.941Z,99793.67
2022-08-16T03:07:27.795Z,99772.37
2022-08-16T03:09:55.887Z,99772.37
2022-08-16T03:12:30.112Z,99746.86
2022-08-16T03:14:57.781Z,99718.77
2022-08-16T03:17:32.529Z,99731.33
2022-08-16T03:19:59.686Z,99755.13
2022-08-16T03:22:29.663Z,99755.13
2022-08-16T03:25:01.711Z,99752.52
2022-08-16T03:27:32.999Z,99752.52
2022-08-16T03:30:16.179Z,99748.08
2022-08-16T03:32:36.390Z,99773.78
2022-08-16T03:35:06.672Z,99773.78
2022-08-16T03:38:02.570Z,99787.50
2022-08-16T03:40:31.417Z,99800.47
2022-08-16T03:43:18.707Z,99829.58
2022-08-16T03:45:14.791Z,99829.58
2022-08-16T03:47:44.382Z,99838.50
2022-08-16T03:50:26.246Z,99832.19
2022-08-16T03:52:47.494Z,99863.70
2022-08-16T03:55:17.719Z,99866.80
2022-08-16T03:57:52.303Z,99871.98
2022-08-16T04:00:36.209Z,99874.59
2022-08-16T04:03:01.771Z,99862.63
2022-08-16T04:05:30.996Z,99842.72
2022-08-16T04:08:00.182Z,99842.72
2022-08-16T04:10:35.728Z,99847.77
2022-08-16T04:13:04.125Z,99833.53
2022-08-16T04:15:33.727Z,99828.38
2022-08-16T04:18:03.527Z,99827.64
2022-08-16T04:20:36.737Z,99799.70
2022-08-16T04:23:04.009Z,99799.70
2022-08-16T04:25:35.515Z,99781.83
2022-08-16T04:28:29.205Z,99781.83
2022-08-16T04:30:36.790Z,99773.48
2022-08-16T04:33:08.446Z,99769.31
2022-08-16T04:35:38.559Z,99758.89
2022-08-16T04:38:10.695Z,99758.89
2022-08-16T04:40:38.818Z,99744.67
2022-08-16T04:43:09.671Z,99727.73
2022-08-16T04:45:40.074Z,99722.58
2022-08-16T04:48:11.106Z,99722.58
2022-08-16T04:50:43.668Z,99711.03
2022-08-16T04:53:12.805Z,99730.30
2022-08-16T04:55:44.904Z,99758.34
2022-08-16T04:58:41.415Z,99767.91
2022-08-16T05:00:44.733Z,99787.23
2022-08-16T05:03:15.421Z,99799.19
2022-08-16T05:05:55.467Z,99813.72
2022-08-16T05:08:28.470Z,99821.80
2022-08-16T05:10:46.704Z,99818.85
2022-08-16T05:13:18.863Z,99818.85
2022-08-16T05:15:49.785Z,99828.56
2022-08-16T05:18:26.898Z,99852.82
2022-08-16T05:21:01.482Z,99852.82
2022-08-16T05:23:21.069Z,99847.36
2022-08-16T05:25:50.424Z,99858.30
2022-08-16T05:28:21.124Z,99846.56
2022-08-16T05:30:52.666Z,99845.06
2022-08-16T05:33:22.922Z,99838.55
2022-08-16T05:35:55.058Z,99850.41
2022-08-16T05:38:32.766Z,99830.31
2022-08-16T05:41:02.960Z,99830.31
2022-08-16T05:43:42.882Z,99829.98
2022-08-16T05:46:03.415Z,99842.20
2022-08-16T05:48:34.365Z,99842.20
2022-08-16T05:51:04.178Z,99832.83
2022-08-16T05:53:38.682Z,99832.83
2022-08-16T05:56:06.172Z,99837.67
2022-08-16T05:58:35.358Z,99852.34
2022-08-16T06:01:04.967Z,99844.97
2022-08-16T06:03:35.380Z,99843.91
2022-08-16T06:06:04.684Z,99839.97
2022-08-16T06:08:44.909Z,99839.97
2022-08-16T06:11:11.033Z,99836.32
2022-08-16T06:13:42.382Z,99843.97
2022-08-16T06:16:09.257Z,99836.64
2022-08-16T06:18:40.107Z,99832.66
2022-08-16T06:21:09.293Z,99821.33
2022-08-16T06:23:39.017Z,99810.86
2022-08-16T06:26:08.788Z,99801.06
2022-08-16T06:28:37.911Z,99801.06
2022-08-16T06:31:12.288Z,99806.56
2022-08-16T06:33:44.554Z,99806.56
2022-08-16T06:36:14.741Z,99815.69
2022-08-16T06:38:55.305Z,99816.20
2022-08-16T06:41:16.733Z,99827.53
2022-08-16T06:43:45.795Z,99827.53
2022-08-16T06:46:31.953Z,99833.36
2022-08-16T06:48:59.033Z,99825.03
2022-08-16T06:51:46.486Z,99812.13
2022-08-16T06:53:59.075Z,99816.86
2022-08-16T06:56:28.398Z,99819.83
2022-08-16T06:58:57.643Z,99814.81
2022-08-16T07:01:43.222Z,99814.53
2022-08-16T07:03:57.814Z,99825.42
2022-08-16T07:06:27.458Z,99832.42
2022-08-16T07:08:56.991Z,99832.42
2022-08-16T07:11:27.053Z,99830.93
2022-08-16T07:14:22.790Z,99830.93
2022-08-16T07:16:29.136Z,99837.97
2022-08-16T07:19:01.884Z,99848.19
2022-08-16T07:21:46.691Z,99842.04
2022-08-16T07:24:06.607Z,99846.14
2022-08-16T07:26:35.848Z,99846.14
2022-08-16T07:29:05.362Z,99848.02
2022-08-16T07:31:37.630Z,99848.02
2022-08-16T07:34:10.153Z,99844.28
2022-08-16T07:36:37.766Z,99857.84
2022-08-16T07:39:07.061Z,99863.85
2022-08-16T07:41:36.606Z,99863.85
2022-08-16T07:44:16.457Z,99877.41
2022-08-16T07:46:38.362Z,99877.41
2022-08-16T07:49:11.445Z,99879.67
2022-08-16T07:51:38.991Z,99875.03
2022-08-16T07:54:14.467Z,99883.90
2022-08-16T07:56:42.023Z,99894.28
2022-08-16T07:59:12.645Z,99894.28
2022-08-16T08:01:43.157Z,99883.07
2022-08-16T08:04:13.584Z,99883.76
2022-08-16T08:06:43.826Z,99897.43
2022-08-16T08:09:13.208Z,99897.47
2022-08-16T08:12:00.791Z,99889.64
2022-08-16T08:14:29.809Z,99889.64
2022-08-16T08:16:46.002Z,99888.31
2022-08-16T08:19:17.061Z,99889.84
2022-08-16T08:21:59.042Z,99887.58
2022-08-16T08:24:18.537Z,99888.57
2022-08-16T08:26:50.261Z,99888.57
2022-08-16T08:29:22.548Z,99888.97
2022-08-16T08:31:51.395Z,99889.61
2022-08-16T08:34:22.271Z,99889.61
2022-08-16T08:36:54.448Z,99873.61
2022-08-16T08:39:24.674Z,99873.61
2022-08-16T08:41:55.082Z,99873.55
2022-08-16T08:44:29.272Z,99867.89
2022-08-16T08:47:00.420Z,99867.89
2022-08-16T08:49:50.242Z,99862.30
2022-08-16T08:51:59.181Z,99862.70
2022-08-16T08:54:28.859Z,99862.88
2022-08-16T08:56:58.332Z,99856.12
2022-08-16T08:59:27.433Z,99860.04
2022-08-16T09:01:58.568Z,99860.04
2022-08-16T09:04:30.266Z,99870.30
2022-08-16T09:07:01.392Z,99867.84
2022-08-16T09:09:33.200Z,99867.84
2022-08-16T09:12:06.069Z,99861.94
2022-08-16T09:14:34.284Z,99861.94
2022-08-16T09:17:11.719Z,99860.92
2022-08-16T09:19:41.034Z,99866.56
2022-08-16T09:22:19.594Z,99863.75
2022-08-16T09:24:52.209Z,99856.11
2022-08-16T09:27:10.905Z,99863.08
2022-08-16T09:29:44.709Z,99846.77
2022-08-16T09:32:11.016Z,99850.07
2022-08-16T09:34:40.532Z,99850.07
2022-08-16T09:37:18.084Z,99849.34
2022-08-16T09:39:43.396Z,99866.34
2022-08-16T09:42:15.315Z,99870.77
2022-08-16T09:45:12.534Z,99870.77
2022-08-16T09:47:16.485Z,99888.75
2022-08-16T09:49:50.972Z,99888.75
2022-08-16T09:52:18.433Z,99884.12
2022-08-16T09:54:49.461Z,99888.84
2022-08-16T09:57:19.689Z,99890.48
2022-08-16T09:59:55.973Z,99885.95
2022-08-16T10:02:25.983Z,99893.59
2022-08-16T10:04:54.112Z,99886.98
2022-08-16T10:07:22.953Z,99886.98
2022-08-16T10:09:54.682Z,99881.79
2022-08-16T10:12:42.536Z,99894.91
2022-08-16T10:15:15.638Z,99902.74
2022-08-16T10:18:00.185Z,99898.92
2022-08-16T10:20:18.851Z,99890.45
2022-08-16T10:22:48.313Z,99890.45
2022-08-16T10:27:03.786Z,99895.98
2022-08-16T10:27:53.243Z,99889.45
2022-08-16T10:30:26.267Z,99889.45
2022-08-16T10:32:51.877Z,99887.39
2022-08-16T10:35:21.808Z,99897.31
2022-08-16T10:37:53.163Z,99892.30
2022-08-16T10:40:29.439Z,99886.66
2022-08-16T10:42:53.883Z,99889.00
2022-08-16T10:45:23.085Z,99881.86
2022-08-16T10:48:02.685Z,99881.86
2022-08-16T10:50:23.015Z,99885.16
2022-08-16T10:52:56.837Z,99896.86
2022-08-16T10:55:41.062Z,99888.06
2022-08-16T10:57:57.224Z,99888.06
2022-08-16T11:00:26.267Z,99889.59
2022-08-16T11:03:37.598Z,99889.59
2022-08-16T11:05:26.639Z,99885.48
2022-08-16T11:07:56.348Z,99883.38
2022-08-16T11:15:34.382Z,99893.76
2022-08-16T11:20:41.619Z,99895.35
2022-08-16T11:23:06.774Z,99900.14
2022-08-16T11:28:09.230Z,99888.38
2022-08-16T11:30:39.620Z,99887.31
2022-08-16T11:33:10.837Z,99886.96
2022-08-16T11:36:21.913Z,99882.53
2022-08-16T11:38:47.038Z,99882.88
2022-08-16T11:40:53.187Z,99882.88
2022-08-16T11:43:28.357Z,99872.30
2022-08-16T11:46:01.415Z,99872.60
2022-08-16T11:48:34.750Z,99872.60
2022-08-16T11:51:04.296Z,99866.59
2022-08-16T11:53:36.077Z,99866.59
2022-08-16T11:56:06.338Z,99865.05
2022-08-16T11:58:35.469Z,99865.05
2022-08-16T12:01:05.936Z,99854.00
2022-08-16T12:03:36.844Z,99854.00
2022-08-16T12:06:24.852Z,99861.87
2022-08-16T12:08:45.445Z,99856.30
2022-08-16T12:11:15.538Z,99866.48
2022-08-16T12:13:46.843Z,99866.48
2022-08-16T12:16:20.628Z,99852.77
2022-08-16T12:18:50.471Z,99855.70
2022-08-16T12:21:20.044Z,99852.77
2022-08-16T12:23:49.267Z,99849.35
2022-08-16T12:26:18.986Z,99841.05
2022-08-16T12:28:54.793Z,99844.33
2022-08-16T12:31:19.179Z,99830.05
2022-08-16T12:33:48.643Z,99830.05
2022-08-16T12:36:19.467Z,99832.31
2022-08-16T12:38:49.442Z,99825.97
2022-08-16T12:41:25.180Z,99809.58
2022-08-16T12:43:51.904Z,99809.58
2022-08-16T12:46:21.275Z,99812.45
2022-08-16T12:49:00.402Z,99827.00
2022-08-16T12:51:58.175Z,99833.19
2022-08-16T12:54:06.151Z,99833.19
2022-08-16T12:56:38.938Z,99839.83
2022-08-16T12:59:13.206Z,99835.91
2022-08-16T13:01:44.818Z,99835.91
2022-08-16T13:04:20.277Z,99834.37
2022-08-16T13:06:48.801Z,99835.81
2022-08-16T13:09:22.052Z,99835.81
2022-08-16T13:12:06.418Z,99847.19
2022-08-16T13:14:41.450Z,99851.56
2022-08-16T13:17:18.394Z,99848.73
2022-08-16T13:20:06.745Z,99839.50
2022-08-16T13:22:18.590Z,99845.26
2022-08-16T13:24:46.216Z,99845.26
2022-08-16T13:27:15.825Z,99853.36
2022-08-16T13:29:46.349Z,99854.27
2022-08-16T13:32:40.567Z,99847.95
2022-08-16T13:34:49.672Z,99847.95
2022-08-16T13:37:19.210Z,99840.71
2022-08-16T13:39:49.430Z,99862.28
2022-08-16T13:42:20.638Z,99867.08
2022-08-16T13:44:58.074Z,99867.08
2022-08-16T13:47:21.378Z,99861.68
2022-08-16T13:49:52.768Z,99862.58
2022-08-16T13:52:25.231Z,99862.58
2022-08-16T13:54:56.085Z,99872.56
2022-08-16T13:57:53.435Z,99883.25
2022-08-16T13:59:57.545Z,99880.98
2022-08-16T14:02:27.500Z,99885.47
2022-08-16T14:04:59.550Z,99885.47
2022-08-16T14:07:27.776Z,99885.00
2022-08-16T14:09:58.601Z,99875.00
2022-08-16T14:12:30.364Z,99873.69
2022-08-16T14:15:00.053Z,99873.69
2022-08-16T14:17:31.334Z,99877.42
2022-08-16T14:20:01.745Z,99877.38
2022-08-16T14:22:35.941Z,99874.19
2022-08-16T14:25:10.111Z,99889.28
2022-08-16T14:27:56.647Z,99889.28
2022-08-16T14:30:26.394Z,99884.27
2022-08-16T14:32:55.934Z,99885.86
2022-08-16T14:35:36.352Z,99881.91
2022-08-16T14:37:59.308Z,99881.91
2022-08-16T14:40:29.943Z,99887.42
2022-08-16T14:43:07.040Z,99894.90
2022-08-16T14:45:31.443Z,99894.83
2022-08-16T14:48:00.727Z,99900.83
2022-08-16T14:50:29.906Z,99900.83
2022-08-16T14:53:04.714Z,99896.53
2022-08-16T14:55:36.667Z,99897.09
2022-08-16T14:58:18.844Z,99890.25
2022-08-16T15:00:38.576Z,99890.25
2022-08-16T15:03:10.846Z,99881.38
2022-08-16T15:05:42.678Z,99880.19
2022-08-16T15:08:12.625Z,99877.32
2022-08-16T15:10:44.810Z,99877.32
2022-08-16T15:13:13.682Z,99866.58
2022-08-16T15:15:45.246Z,99863.00
2022-08-16T15:18:23.476Z,99863.00
2022-08-16T15:20:47.354Z,99856.20
2022-08-16T15:23:17.949Z,99856.20
2022-08-16T15:26:02.833Z,99855.63
2022-08-16T15:28:30.557Z,99856.97
2022-08-16T15:30:59.591Z,99868.05
2022-08-16T15:33:25.551Z,99868.05
2022-08-16T15:35:57.954Z,99862.86
2022-08-16T15:38:57.189Z,99862.86
2022-08-16T15:40:58.867Z,99867.27
2022-08-16T15:43:39.396Z,99866.69
2022-08-16T15:46:35.705Z,99866.69
2022-08-16T15:48:48.080Z,99868.70
2022-08-16T15:51:18.814Z,99867.59
2022-08-16T15:53:55.914Z,99862.13
2022-08-16T15:56:18.618Z,99869.18
2022-08-16T15:58:55.631Z,99874.09
2022-08-16T16:01:20.337Z,99874.14
2022-08-16T16:03:51.518Z,99874.14
2022-08-16T16:06:28.067Z,99868.91
2022-08-16T16:08:54.783Z,99875.59
2022-08-16T16:11:24.923Z,99882.81
2022-08-16T16:13:54.417Z,99879.93
2022-08-16T16:16:23.519Z,99879.93
2022-08-16T16:18:53.144Z,99889.09
2022-08-16T16:21:22.344Z,99897.19
2022-08-16T16:23:59.029Z,99909.84
2022-08-16T16:26:24.847Z,99909.84
2022-08-16T16:29:08.229Z,99909.89
2022-08-16T16:31:27.861Z,99906.89
2022-08-16T16:34:00.726Z,99905.52
2022-08-16T16:36:32.482Z,99903.66
2022-08-16T16:39:06.150Z,99910.17
2022-08-16T16:41:38.873Z,99903.24
2022-08-16T16:44:11.241Z,99901.20
2022-08-16T16:46:43.777Z,99901.20
2022-08-16T16:49:15.014Z,99913.84
2022-08-16T16:51:50.125Z,99906.73
2022-08-16T16:54:27.971Z,99916.27
2022-08-16T16:56:50.422Z,99909.60
2022-08-16T16:59:20.269Z,99909.60
2022-08-16T17:01:59.448Z,99917.03
2022-08-16T17:04:32.087Z,99912.86
2022-08-16T17:06:57.412Z,99901.27
2022-08-16T17:09:25.850Z,99905.09
2022-08-16T17:11:56.014Z,99907.95
2022-08-16T17:14:33.125Z,99912.05
2022-08-16T17:16:56.746Z,99912.05
2022-08-16T17:19:31.630Z,99907.86
2022-08-16T17:21:58.410Z,99917.16
2022-08-16T17:24:33.104Z,99917.16
2022-08-16T17:27:00.676Z,99922.14
2022-08-16T17:29:32.134Z,99922.14
2022-08-16T17:32:33.238Z,99916.97
2022-08-16T17:34:31.972Z,99923.54
2022-08-16T17:37:05.214Z,99914.49
2022-08-16T17:39:59.506Z,99915.78
2022-08-16T17:42:13.601Z,99919.48
2022-08-16T17:44:43.660Z,99928.72
2022-08-16T17:47:13.105Z,99917.59
2022-08-16T17:49:42.319Z,99920.70
2022-08-16T17:52:13.261Z,99920.70
2022-08-16T17:54:42.570Z,99914.00
2022-08-16T17:57:12.776Z,99923.45
2022-08-16T17:59:42.814Z,99925.55
2022-08-16T18:02:42.409Z,99936.92
2022-08-16T18:04:49.395Z,99941.64
2022-08-16T18:07:14.142Z,99934.80
2022-08-16T18:09:43.226Z,99925.23
2022-08-16T18:12:54.484Z,99925.23
2022-08-16T18:14:54.931Z,99927.08
2022-08-16T18:17:22.874Z,99933.09
2022-08-16T18:19:51.960Z,99929.97
2022-08-16T18:22:30.574Z,99919.48
2022-08-16T18:24:57.835Z,99913.80
2022-08-16T18:27:28.723Z,99913.80
2022-08-16T18:29:57.943Z,99917.51
2022-08-16T18:32:28.826Z,99916.48
2022-08-16T18:34:58.286Z,99912.27
2022-08-16T18:37:27.638Z,99910.97
2022-08-16T18:39:56.951Z,99905.91
2022-08-16T18:42:27.401Z,99909.94
2022-08-16T18:44:56.840Z,99909.94
2022-08-16T18:47:26.023Z,99907.49
2022-08-16T18:49:55.210Z,99920.05
2022-08-16T18:52:25.990Z,99916.66
2022-08-16T18:54:58.894Z,99911.52
2022-08-16T18:57:26.451Z,99904.93
2022-08-16T18:59:55.907Z,99911.04
2022-08-16T19:02:56.882Z,99911.04
2022-08-16T19:04:58.648Z,99907.52
2022-08-16T19:07:30.821Z,99903.47
2022-08-16T19:09:59.036Z,99903.75
2022-08-16T19:12:47.067Z,99903.75
2022-08-16T19:14:59.727Z,99904.77
2022-08-16T19:17:29.210Z,99903.27
2022-08-16T19:19:58.394Z,99900.48
2022-08-16T19:22:59.532Z,99900.41
2022-08-16T19:25:03.135Z,99898.58
2022-08-16T19:27:33.062Z,99908.81
2022-08-16T19:30:02.961Z,99908.81
2022-08-16T19:32:32.064Z,99914.72
2022-08-16T19:35:02.656Z,99914.72
2022-08-16T19:37:31.861Z,99915.13
2022-08-16T19:40:01.381Z,99914.00
2022-08-16T19:42:30.911Z,99919.93
2022-08-16T19:45:01.433Z,99919.93
2022-08-16T19:47:32.098Z,99908.61
2022-08-16T19:50:01.263Z,99908.61
2022-08-16T19:52:32.786Z,99910.31
2022-08-16T19:55:05.188Z,99918.86
2022-08-16T19:57:34.401Z,99916.98
2022-08-16T20:00:11.262Z,99915.84
2022-08-16T20:02:36.803Z,99921.25
2022-08-16T20:05:06.843Z,99921.48
2022-08-16T20:07:35.986Z,99919.47
2022-08-16T20:10:08.060Z,99924.22
2022-08-16T20:12:37.775Z,99924.22
2022-08-16T20:15:08.724Z,99919.88
2022-08-16T20:17:37.908Z,99913.84
2022-08-16T20:20:07.645Z,99902.63
2022-08-16T20:22:54.616Z,99895.37
2022-08-16T20:25:11.714Z,99895.37
2022-08-16T20:27:42.493Z,99884.81
2022-08-16T20:30:17.093Z,99884.81
2022-08-16T20:32:47.909Z,99885.92
2022-08-16T20:35:19.921Z,99885.92
2022-08-16T20:37:49.100Z,99881.41
2022-08-16T20:40:34.801Z,99881.41
2022-08-16T20:43:02.878Z,99877.50
2022-08-16T20:45:32.433Z,99877.62
2022-08-16T20:48:01.820Z,99876.99
2022-08-16T20:50:30.911Z,99876.99
2022-08-16T20:53:00.253Z,99876.03
2022-08-16T20:55:30.632Z,99876.00
2022-08-16T20:57:59.783Z,99877.05
2022-08-16T21:00:29.505Z,99870.54
2022-08-16T21:02:58.685Z,99871.99
2022-08-16T21:05:31.133Z,99875.64
2022-08-16T21:08:00.473Z,99875.94
2022-08-16T21:10:29.716Z,99888.20
2022-08-16T21:13:03.103Z,99882.77
2022-08-16T21:15:34.434Z,99880.45
2022-08-16T21:18:03.856Z,99883.59
2022-08-16T21:20:33.142Z,99880.64
2022-08-16T21:23:05.670Z,99882.00
2022-08-16T21:25:39.638Z,99880.81
2022-08-16T21:28:41.911Z,99891.08
2022-08-16T21:30:41.012Z,99882.52
2022-08-16T21:33:15.896Z,99887.73
2022-08-16T21:35:47.268Z,99887.69
2022-08-16T21:38:28.728Z,99882.16
2022-08-16T21:40:49.343Z,99888.31
2022-08-16T21:43:23.522Z,99874.41
2022-08-16T21:45:55.808Z,99874.41
2022-08-16T21:48:33.608Z,99871.56
2022-08-16T21:50:59.202Z,99874.69
2022-08-16T21:53:29.141Z,99874.69
2022-08-16T21:56:00.198Z,99870.77
2022-08-16T21:58:30.324Z,99867.09
2022-08-16T22:00:59.913Z,99867.09
2022-08-16T22:03:31.483Z,99879.59
2022-08-16T22:06:12.343Z,99877.00
2022-08-16T22:08:32.729Z,99873.32
2022-08-16T22:11:06.288Z,99878.41
2022-08-16T22:13:33.364Z,99878.41
2022-08-16T22:16:02.607Z,99881.41
2022-08-16T22:18:31.873Z,99881.41
2022-08-16T22:21:01.176Z,99874.75
2022-08-16T22:23:32.053Z,99873.25
2022-08-16T22:26:01.559Z,99873.54
2022-08-16T22:28:30.824Z,99865.14
2022-08-16T22:31:00.025Z,99865.14
2022-08-16T22:33:30.352Z,99858.17
2022-08-16T22:36:02.106Z,99858.17
2022-08-16T22:38:55.039Z,99860.62
2022-08-16T22:41:05.311Z,99853.03
2022-08-16T22:43:34.984Z,99847.02
2022-08-16T22:46:05.057Z,99850.25
2022-08-16T22:48:39.206Z,99840.22
2022-08-16T22:51:05.889Z,99843.49
2022-08-16T22:53:34.984Z,99840.00
2022-08-16T22:56:06.119Z,99841.75
2022-08-16T22:58:36.720Z,99852.02
2022-08-16T23:01:08.162Z,99852.02
2022-08-16T23:03:37.853Z,99854.05
2022-08-16T23:06:08.219Z,99855.00
2022-08-16T23:08:40.969Z,99852.74
2022-08-16T23:11:17.609Z,99850.48
2022-08-16T23:13:52.990Z,99850.48
2022-08-16T23:16:20.702Z,99848.24
2022-08-16T23:18:50.927Z,99860.32
2022-08-16T23:21:20.167Z,99860.32
2022-08-16T23:23:51.582Z,99864.69
2022-08-16T23:26:46.987Z,99864.69
2022-08-16T23:28:54.376Z,99863.06
2022-08-16T23:31:23.990Z,99863.06
2022-08-16T23:33:53.303Z,99855.36
2022-08-16T23:36:22.417Z,99862.92
2022-08-16T23:38:51.618Z,99861.22
2022-08-16T23:41:20.809Z,99861.27
2022-08-16T23:43:49.978Z,99860.84
2022-08-16T23:46:20.706Z,99871.18
2022-08-16T23:49:58.240Z,99863.63
2022-08-16T23:51:21.196Z,99859.33
2022-08-16T23:53:51.453Z,99869.09
2022-08-16T23:56:22.186Z,99861.28
2022-08-16T23:59:02.336Z,99868.66
